Saint Columbans, Nebraska
Current Conditions -  °F | °C
As of 8:58 AM on Friday 19 Dec 2014 (Local Time) from KOFF Reporting Station
Haze Haze  
Wind Chill: 24°   Ceiling: 600
Heat Index: 31°   Visibility: 5mi
Dew Point: 29°   Wind: 7mph
Humidity: 94%   Direction: 130°SE
Pressure: 30.22"   Gusts: NA
Location:  41.1°N, 95.87°W
Report Text: KOFF 191458Z AUTO 13006KT 5SM BR BKN006 OVC029 M01/M02 A3022 RMK AO2 SLP249 T10081016 53002
Loading
Personal Weather Stations






























Interactive Weather Map New forecast layout! Learn more

10-Day Weather Forecast

Advertisements
Track Severe Weather on mobile